sensor_id;sensor_type;location;lat;lon;timestamp;P1;durP1;ratioP1;P2;durP2;ratioP2
18200;SDS011;9226;47.858;9.594;2022-09-29T00:01:50;5.77;;;3.60;;
18200;SDS011;9226;47.858;9.594;2022-09-29T00:04:15;7.37;;;3.17;;
18200;SDS011;9226;47.858;9.594;2022-09-29T00:06:41;4.20;;;2.70;;
18200;SDS011;9226;47.858;9.594;2022-09-29T00:09:06;9.30;;;2.67;;
18200;SDS011;9226;47.858;9.594;2022-09-29T00:11:32;5.30;;;3.10;;
18200;SDS011;9226;47.858;9.594;2022-09-29T00:13:57;5.47;;;3.20;;
18200;SDS011;9226;47.858;9.594;2022-09-29T00:16:23;5.43;;;3.17;;
18200;SDS011;9226;47.858;9.594;2022-09-29T00:18:48;7.57;;;3.50;;
18200;SDS011;9226;47.858;9.594;2022-09-29T00:21:16;5.70;;;3.07;;
18200;SDS011;9226;47.858;9.594;2022-09-29T00:23:45;5.00;;;3.00;;
18200;SDS011;9226;47.858;9.594;2022-09-29T00:26:16;4.50;;;2.70;;
18200;SDS011;9226;47.858;9.594;2022-09-29T00:28:53;6.07;;;3.10;;
18200;SDS011;9226;47.858;9.594;2022-09-29T00:31:21;8.37;;;3.47;;
18200;SDS011;9226;47.858;9.594;2022-09-29T00:33:47;12.83;;;4.23;;
18200;SDS011;9226;47.858;9.594;2022-09-29T00:36:15;8.17;;;3.77;;
18200;SDS011;9226;47.858;9.594;2022-09-29T00:38:42;8.97;;;3.80;;
18200;SDS011;9226;47.858;9.594;2022-09-29T00:41:19;9.60;;;3.60;;
18200;SDS011;9226;47.858;9.594;2022-09-29T00:48:51;9.07;;;3.37;;
18200;SDS011;9226;47.858;9.594;2022-09-29T00:51:19;6.87;;;3.90;;
18200;SDS011;9226;47.858;9.594;2022-09-29T00:53:45;9.00;;;4.23;;
18200;SDS011;9226;47.858;9.594;2022-09-29T00:56:13;6.73;;;3.77;;
18200;SDS011;9226;47.858;9.594;2022-09-29T00:58:43;6.20;;;3.60;;
18200;SDS011;9226;47.858;9.594;2022-09-29T01:01:18;7.10;;;3.57;;
18200;SDS011;9226;47.858;9.594;2022-09-29T01:03:48;6.67;;;3.77;;
18200;SDS011;9226;47.858;9.594;2022-09-29T01:06:21;6.57;;;3.53;;
18200;SDS011;9226;47.858;9.594;2022-09-29T01:08:55;5.80;;;3.20;;
18200;SDS011;9226;47.858;9.594;2022-09-29T01:11:25;6.27;;;3.57;;
18200;SDS011;9226;47.858;9.594;2022-09-29T01:13:52;9.70;;;3.97;;
18200;SDS011;9226;47.858;9.594;2022-09-29T01:16:19;6.97;;;3.67;;
18200;SDS011;9226;47.858;9.594;2022-09-29T01:18:44;7.23;;;4.10;;
18200;SDS011;9226;47.858;9.594;2022-09-29T01:40:03;10.30;;;5.27;;
18200;SDS011;9226;47.858;9.594;2022-09-29T01:42:38;7.47;;;3.83;;
18200;SDS011;9226;47.858;9.594;2022-09-29T01:45:25;8.50;;;3.93;;
18200;SDS011;9226;47.858;9.594;2022-09-29T01:48:05;8.20;;;3.77;;
18200;SDS011;9226;47.858;9.594;2022-09-29T01:50:35;7.60;;;4.10;;
18200;SDS011;9226;47.858;9.594;2022-09-29T01:53:47;4.77;;;3.10;;
18200;SDS011;9226;47.858;9.594;2022-09-29T01:56:08;5.37;;;3.10;;
18200;SDS011;9226;47.858;9.594;2022-09-29T02:01:14;5.17;;;3.17;;
18200;SDS011;9226;47.858;9.594;2022-09-29T02:03:43;6.47;;;3.50;;
18200;SDS011;9226;47.858;9.594;2022-09-29T02:06:16;57.80;;;6.03;;
18200;SDS011;9226;47.858;9.594;2022-09-29T02:08:50;10.63;;;4.27;;
18200;SDS011;9226;47.858;9.594;2022-09-29T02:11:19;10.80;;;4.67;;
18200;SDS011;9226;47.858;9.594;2022-09-29T02:16:39;12.57;;;5.57;;
18200;SDS011;9226;47.858;9.594;2022-09-29T02:21:45;11.20;;;5.27;;
18200;SDS011;9226;47.858;9.594;2022-09-29T02:24:10;9.57;;;5.20;;
18200;SDS011;9226;47.858;9.594;2022-09-29T02:26:37;9.30;;;4.60;;
18200;SDS011;9226;47.858;9.594;2022-09-29T02:29:05;9.83;;;4.93;;
18200;SDS011;9226;47.858;9.594;2022-09-29T02:31:32;10.93;;;5.13;;
18200;SDS011;9226;47.858;9.594;2022-09-29T02:33:59;10.20;;;5.17;;
18200;SDS011;9226;47.858;9.594;2022-09-29T02:36:39;10.43;;;5.00;;
18200;SDS011;9226;47.858;9.594;2022-09-29T02:41:55;11.27;;;5.07;;
18200;SDS011;9226;47.858;9.594;2022-09-29T02:49:50;14.20;;;6.37;;
18200;SDS011;9226;47.858;9.594;2022-09-29T02:52:44;10.00;;;5.00;;
18200;SDS011;9226;47.858;9.594;2022-09-29T02:55:18;10.50;;;4.93;;
18200;SDS011;9226;47.858;9.594;2022-09-29T03:00:22;9.23;;;4.83;;
18200;SDS011;9226;47.858;9.594;2022-09-29T03:02:50;8.20;;;4.60;;
18200;SDS011;9226;47.858;9.594;2022-09-29T03:05:17;8.67;;;4.70;;
18200;SDS011;9226;47.858;9.594;2022-09-29T03:07:45;8.43;;;4.77;;
18200;SDS011;9226;47.858;9.594;2022-09-29T03:10:11;6.67;;;3.93;;
18200;SDS011;9226;47.858;9.594;2022-09-29T03:12:38;8.70;;;4.20;;
18200;SDS011;9226;47.858;9.594;2022-09-29T03:15:03;8.13;;;4.53;;
18200;SDS011;9226;47.858;9.594;2022-09-29T03:17:30;6.77;;;3.70;;
18200;SDS011;9226;47.858;9.594;2022-09-29T03:19:55;6.20;;;3.23;;
18200;SDS011;9226;47.858;9.594;2022-09-29T03:22:21;6.57;;;3.53;;
18200;SDS011;9226;47.858;9.594;2022-09-29T03:24:47;6.40;;;3.40;;
18200;SDS011;9226;47.858;9.594;2022-09-29T03:27:13;5.87;;;3.27;;
18200;SDS011;9226;47.858;9.594;2022-09-29T03:29:38;7.03;;;3.70;;
18200;SDS011;9226;47.858;9.594;2022-09-29T03:32:04;8.47;;;4.00;;
18200;SDS011;9226;47.858;9.594;2022-09-29T03:34:30;8.17;;;3.83;;
18200;SDS011;9226;47.858;9.594;2022-09-29T03:36:56;9.63;;;4.20;;
18200;SDS011;9226;47.858;9.594;2022-09-29T03:39:22;6.80;;;3.60;;
18200;SDS011;9226;47.858;9.594;2022-09-29T03:41:48;7.03;;;4.13;;
18200;SDS011;9226;47.858;9.594;2022-09-29T03:44:13;6.33;;;3.63;;
18200;SDS011;9226;47.858;9.594;2022-09-29T03:46:39;8.37;;;4.00;;
18200;SDS011;9226;47.858;9.594;2022-09-29T03:49:04;9.70;;;4.40;;
18200;SDS011;9226;47.858;9.594;2022-09-29T03:51:30;9.73;;;4.43;;
18200;SDS011;9226;47.858;9.594;2022-09-29T03:53:55;8.50;;;4.13;;
18200;SDS011;9226;47.858;9.594;2022-09-29T03:56:21;7.73;;;3.77;;
18200;SDS011;9226;47.858;9.594;2022-09-29T03:58:46;7.30;;;3.70;;
18200;SDS011;9226;47.858;9.594;2022-09-29T04:01:11;13.20;;;4.40;;
18200;SDS011;9226;47.858;9.594;2022-09-29T04:03:37;9.13;;;4.23;;
18200;SDS011;9226;47.858;9.594;2022-09-29T04:06:02;6.13;;;3.37;;
18200;SDS011;9226;47.858;9.594;2022-09-29T04:08:28;11.10;;;4.37;;
18200;SDS011;9226;47.858;9.594;2022-09-29T04:10:53;7.10;;;4.30;;
18200;SDS011;9226;47.858;9.594;2022-09-29T04:13:19;9.33;;;4.80;;
18200;SDS011;9226;47.858;9.594;2022-09-29T04:15:46;9.20;;;4.33;;
18200;SDS011;9226;47.858;9.594;2022-09-29T04:18:12;9.07;;;4.73;;
18200;SDS011;9226;47.858;9.594;2022-09-29T04:20:37;9.03;;;4.27;;
18200;SDS011;9226;47.858;9.594;2022-09-29T04:23:03;9.00;;;3.70;;
18200;SDS011;9226;47.858;9.594;2022-09-29T04:25:29;7.60;;;3.43;;
18200;SDS011;9226;47.858;9.594;2022-09-29T04:27:54;5.97;;;3.40;;
18200;SDS011;9226;47.858;9.594;2022-09-29T04:30:20;6.70;;;3.10;;
18200;SDS011;9226;47.858;9.594;2022-09-29T04:32:45;7.53;;;3.60;;
18200;SDS011;9226;47.858;9.594;2022-09-29T04:35:10;8.00;;;3.40;;
18200;SDS011;9226;47.858;9.594;2022-09-29T04:37:36;6.40;;;3.70;;
18200;SDS011;9226;47.858;9.594;2022-09-29T04:40:02;8.77;;;3.73;;
18200;SDS011;9226;47.858;9.594;2022-09-29T04:42:29;5.80;;;3.17;;
18200;SDS011;9226;47.858;9.594;2022-09-29T04:44:54;4.60;;;2.70;;
18200;SDS011;9226;47.858;9.594;2022-09-29T04:47:20;6.23;;;3.47;;
18200;SDS011;9226;47.858;9.594;2022-09-29T04:49:45;5.67;;;3.57;;
18200;SDS011;9226;47.858;9.594;2022-09-29T04:52:11;5.40;;;3.13;;
18200;SDS011;9226;47.858;9.594;2022-09-29T04:54:37;5.70;;;3.00;;
18200;SDS011;9226;47.858;9.594;2022-09-29T04:57:03;9.10;;;3.13;;
18200;SDS011;9226;47.858;9.594;2022-09-29T04:59:28;5.87;;;3.33;;
18200;SDS011;9226;47.858;9.594;2022-09-29T05:01:54;8.07;;;3.63;;
18200;SDS011;9226;47.858;9.594;2022-09-29T05:04:19;6.90;;;3.10;;
18200;SDS011;9226;47.858;9.594;2022-09-29T05:06:45;5.13;;;2.77;;
18200;SDS011;9226;47.858;9.594;2022-09-29T05:09:10;5.20;;;2.80;;
18200;SDS011;9226;47.858;9.594;2022-09-29T05:11:37;4.07;;;2.30;;
18200;SDS011;9226;47.858;9.594;2022-09-29T05:14:03;6.73;;;2.80;;
18200;SDS011;9226;47.858;9.594;2022-09-29T05:16:28;4.43;;;2.73;;
18200;SDS011;9226;47.858;9.594;2022-09-29T05:18:54;4.57;;;2.53;;
18200;SDS011;9226;47.858;9.594;2022-09-29T05:21:19;4.20;;;2.40;;
18200;SDS011;9226;47.858;9.594;2022-09-29T05:23:45;6.13;;;2.50;;
18200;SDS011;9226;47.858;9.594;2022-09-29T05:26:10;4.43;;;2.50;;
18200;SDS011;9226;47.858;9.594;2022-09-29T05:28:36;4.50;;;2.37;;
18200;SDS011;9226;47.858;9.594;2022-09-29T05:31:05;3.97;;;2.30;;
18200;SDS011;9226;47.858;9.594;2022-09-29T05:33:32;5.37;;;2.50;;
18200;SDS011;9226;47.858;9.594;2022-09-29T05:35:58;3.67;;;2.23;;
18200;SDS011;9226;47.858;9.594;2022-09-29T05:38:24;4.57;;;2.47;;
18200;SDS011;9226;47.858;9.594;2022-09-29T05:40:50;6.13;;;2.50;;
18200;SDS011;9226;47.858;9.594;2022-09-29T05:43:16;3.40;;;2.10;;
18200;SDS011;9226;47.858;9.594;2022-09-29T05:45:42;5.17;;;2.53;;
18200;SDS011;9226;47.858;9.594;2022-09-29T05:48:07;4.90;;;2.40;;
18200;SDS011;9226;47.858;9.594;2022-09-29T05:50:33;4.87;;;2.60;;
18200;SDS011;9226;47.858;9.594;2022-09-29T05:53:05;4.03;;;2.27;;
18200;SDS011;9226;47.858;9.594;2022-09-29T05:55:35;3.90;;;2.37;;
18200;SDS011;9226;47.858;9.594;2022-09-29T05:58:02;5.60;;;2.60;;
18200;SDS011;9226;47.858;9.594;2022-09-29T06:00:28;4.90;;;2.87;;
18200;SDS011;9226;47.858;9.594;2022-09-29T06:02:56;5.47;;;2.70;;
18200;SDS011;9226;47.858;9.594;2022-09-29T06:05:23;4.40;;;2.70;;
18200;SDS011;9226;47.858;9.594;2022-09-29T06:07:48;5.57;;;3.13;;
18200;SDS011;9226;47.858;9.594;2022-09-29T06:10:14;4.70;;;2.83;;
18200;SDS011;9226;47.858;9.594;2022-09-29T06:12:39;4.83;;;2.80;;
18200;SDS011;9226;47.858;9.594;2022-09-29T06:15:05;6.17;;;3.27;;
18200;SDS011;9226;47.858;9.594;2022-09-29T06:17:30;4.80;;;3.07;;
18200;SDS011;9226;47.858;9.594;2022-09-29T06:19:56;5.67;;;3.37;;
18200;SDS011;9226;47.858;9.594;2022-09-29T06:22:21;7.80;;;2.67;;
18200;SDS011;9226;47.858;9.594;2022-09-29T06:24:47;5.87;;;3.00;;
18200;SDS011;9226;47.858;9.594;2022-09-29T06:27:12;6.07;;;3.03;;
18200;SDS011;9226;47.858;9.594;2022-09-29T06:29:38;4.87;;;2.87;;
18200;SDS011;9226;47.858;9.594;2022-09-29T06:32:04;5.33;;;2.70;;
18200;SDS011;9226;47.858;9.594;2022-09-29T06:34:29;5.17;;;2.97;;
18200;SDS011;9226;47.858;9.594;2022-09-29T06:36:54;4.73;;;2.70;;
18200;SDS011;9226;47.858;9.594;2022-09-29T06:39:38;5.93;;;3.30;;
18200;SDS011;9226;47.858;9.594;2022-09-29T06:42:04;5.93;;;3.17;;
18200;SDS011;9226;47.858;9.594;2022-09-29T06:44:29;4.73;;;2.83;;
18200;SDS011;9226;47.858;9.594;2022-09-29T06:46:55;6.53;;;3.70;;
18200;SDS011;9226;47.858;9.594;2022-09-29T06:49:22;5.50;;;3.03;;
18200;SDS011;9226;47.858;9.594;2022-09-29T06:51:48;4.83;;;3.00;;
18200;SDS011;9226;47.858;9.594;2022-09-29T06:54:15;4.53;;;2.87;;
18200;SDS011;9226;47.858;9.594;2022-09-29T06:56:47;4.70;;;2.90;;
18200;SDS011;9226;47.858;9.594;2022-09-29T06:59:13;5.87;;;3.43;;
18200;SDS011;9226;47.858;9.594;2022-09-29T07:01:39;5.67;;;3.13;;
18200;SDS011;9226;47.858;9.594;2022-09-29T07:04:04;5.40;;;3.03;;
18200;SDS011;9226;47.858;9.594;2022-09-29T07:06:30;4.13;;;2.70;;
18200;SDS011;9226;47.858;9.594;2022-09-29T07:08:56;6.40;;;3.03;;
18200;SDS011;9226;47.858;9.594;2022-09-29T07:11:22;5.60;;;2.83;;
18200;SDS011;9226;47.858;9.594;2022-09-29T07:13:49;6.07;;;2.90;;
18200;SDS011;9226;47.858;9.594;2022-09-29T07:16:15;4.77;;;3.03;;
18200;SDS011;9226;47.858;9.594;2022-09-29T07:18:41;6.27;;;2.97;;
18200;SDS011;9226;47.858;9.594;2022-09-29T07:21:08;4.50;;;2.80;;
18200;SDS011;9226;47.858;9.594;2022-09-29T07:23:36;4.03;;;2.70;;
18200;SDS011;9226;47.858;9.594;2022-09-29T07:26:03;4.97;;;3.00;;
18200;SDS011;9226;47.858;9.594;2022-09-29T07:28:30;6.93;;;2.87;;
18200;SDS011;9226;47.858;9.594;2022-09-29T07:33:29;4.20;;;2.70;;
18200;SDS011;9226;47.858;9.594;2022-09-29T07:35:55;5.13;;;2.90;;
18200;SDS011;9226;47.858;9.594;2022-09-29T07:38:23;5.83;;;2.77;;
18200;SDS011;9226;47.858;9.594;2022-09-29T07:40:48;5.37;;;2.70;;
18200;SDS011;9226;47.858;9.594;2022-09-29T07:43:14;2.80;;;1.63;;
18200;SDS011;9226;47.858;9.594;2022-09-29T07:45:44;2.53;;;1.60;;
18200;SDS011;9226;47.858;9.594;2022-09-29T07:48:14;5.13;;;2.07;;
18200;SDS011;9226;47.858;9.594;2022-09-29T07:50:40;3.60;;;2.20;;
18200;SDS011;9226;47.858;9.594;2022-09-29T07:53:06;3.40;;;1.80;;
18200;SDS011;9226;47.858;9.594;2022-09-29T07:55:31;2.80;;;1.80;;
18200;SDS011;9226;47.858;9.594;2022-09-29T07:57:57;2.80;;;1.70;;
18200;SDS011;9226;47.858;9.594;2022-09-29T08:00:22;3.50;;;1.70;;
18200;SDS011;9226;47.858;9.594;2022-09-29T08:02:48;2.43;;;1.40;;
18200;SDS011;9226;47.858;9.594;2022-09-29T08:05:13;2.70;;;1.57;;
18200;SDS011;9226;47.858;9.594;2022-09-29T08:07:39;2.83;;;1.50;;
18200;SDS011;9226;47.858;9.594;2022-09-29T08:10:04;2.23;;;1.30;;
18200;SDS011;9226;47.858;9.594;2022-09-29T08:12:30;2.00;;;1.40;;
18200;SDS011;9226;47.858;9.594;2022-09-29T08:14:56;2.37;;;1.30;;
18200;SDS011;9226;47.858;9.594;2022-09-29T08:17:21;1.40;;;1.00;;
18200;SDS011;9226;47.858;9.594;2022-09-29T08:19:47;1.23;;;1.00;;
18200;SDS011;9226;47.858;9.594;2022-09-29T08:22:12;1.57;;;0.90;;
18200;SDS011;9226;47.858;9.594;2022-09-29T08:24:38;2.10;;;1.27;;
18200;SDS011;9226;47.858;9.594;2022-09-29T08:27:04;1.93;;;0.83;;
18200;SDS011;9226;47.858;9.594;2022-09-29T08:29:31;2.43;;;0.77;;
18200;SDS011;9226;47.858;9.594;2022-09-29T08:31:57;1.67;;;0.80;;
18200;SDS011;9226;47.858;9.594;2022-09-29T08:34:23;0.90;;;0.80;;
18200;SDS011;9226;47.858;9.594;2022-09-29T08:36:48;0.63;;;0.63;;
18200;SDS011;9226;47.858;9.594;2022-09-29T08:39:13;3.17;;;0.90;;
18200;SDS011;9226;47.858;9.594;2022-09-29T08:44:28;1.10;;;0.80;;
18200;SDS011;9226;47.858;9.594;2022-09-29T08:49:56;2.00;;;0.83;;
18200;SDS011;9226;47.858;9.594;2022-09-29T08:52:30;0.80;;;0.67;;
18200;SDS011;9226;47.858;9.594;2022-09-29T08:57:41;0.70;;;0.70;;
18200;SDS011;9226;47.858;9.594;2022-09-29T09:00:11;0.70;;;0.60;;
18200;SDS011;9226;47.858;9.594;2022-09-29T09:02:45;2.40;;;0.70;;
18200;SDS011;9226;47.858;9.594;2022-09-29T09:05:41;4.27;;;0.67;;
18200;SDS011;9226;47.858;9.594;2022-09-29T09:27:26;1.53;;;0.70;;
18200;SDS011;9226;47.858;9.594;2022-09-29T09:30:02;0.60;;;0.47;;
18200;SDS011;9226;47.858;9.594;2022-09-29T09:32:32;0.97;;;0.60;;
18200;SDS011;9226;47.858;9.594;2022-09-29T09:35:19;0.80;;;0.60;;
18200;SDS011;9226;47.858;9.594;2022-09-29T09:37:59;0.67;;;0.60;;
18200;SDS011;9226;47.858;9.594;2022-09-29T09:40:35;0.60;;;0.50;;
18200;SDS011;9226;47.858;9.594;2022-09-29T09:43:06;1.57;;;0.80;;
18200;SDS011;9226;47.858;9.594;2022-09-29T09:46:00;1.20;;;0.60;;
18200;SDS011;9226;47.858;9.594;2022-09-29T09:48:47;0.43;;;0.43;;
18200;SDS011;9226;47.858;9.594;2022-09-29T09:51:57;0.50;;;0.47;;
18200;SDS011;9226;47.858;9.594;2022-09-29T09:54:35;1.10;;;0.57;;
18200;SDS011;9226;47.858;9.594;2022-09-29T10:02:25;1.77;;;0.50;;
18200;SDS011;9226;47.858;9.594;2022-09-29T10:04:51;1.30;;;0.50;;
18200;SDS011;9226;47.858;9.594;2022-09-29T10:07:18;0.83;;;0.40;;
18200;SDS011;9226;47.858;9.594;2022-09-29T10:09:46;0.40;;;0.40;;
18200;SDS011;9226;47.858;9.594;2022-09-29T10:12:30;0.40;;;0.40;;
18200;SDS011;9226;47.858;9.594;2022-09-29T10:15:04;0.63;;;0.50;;
18200;SDS011;9226;47.858;9.594;2022-09-29T10:17:43;0.60;;;0.60;;
18200;SDS011;9226;47.858;9.594;2022-09-29T10:20:13;0.43;;;0.43;;
18200;SDS011;9226;47.858;9.594;2022-09-29T10:23:06;0.90;;;0.60;;
18200;SDS011;9226;47.858;9.594;2022-09-29T10:29:27;0.50;;;0.50;;
18200;SDS011;9226;47.858;9.594;2022-09-29T10:34:40;1.10;;;0.70;;
18200;SDS011;9226;47.858;9.594;2022-09-29T10:37:23;1.00;;;0.73;;
18200;SDS011;9226;47.858;9.594;2022-09-29T10:42:37;0.87;;;0.70;;
18200;SDS011;9226;47.858;9.594;2022-09-29T10:45:46;5.20;;;0.73;;
18200;SDS011;9226;47.858;9.594;2022-09-29T10:48:10;2.90;;;0.60;;
18200;SDS011;9226;47.858;9.594;2022-09-29T10:53:36;0.70;;;0.70;;
18200;SDS011;9226;47.858;9.594;2022-09-29T10:56:17;1.07;;;0.60;;
18200;SDS011;9226;47.858;9.594;2022-09-29T10:58:58;0.60;;;0.60;;
18200;SDS011;9226;47.858;9.594;2022-09-29T11:01:26;0.70;;;0.70;;
18200;SDS011;9226;47.858;9.594;2022-09-29T11:03:55;1.70;;;0.80;;
18200;SDS011;9226;47.858;9.594;2022-09-29T11:06:34;3.43;;;0.90;;
18200;SDS011;9226;47.858;9.594;2022-09-29T11:11:37;1.27;;;0.60;;
18200;SDS011;9226;47.858;9.594;2022-09-29T11:14:04;0.70;;;0.70;;
18200;SDS011;9226;47.858;9.594;2022-09-29T11:16:34;0.90;;;0.70;;
18200;SDS011;9226;47.858;9.594;2022-09-29T11:19:11;2.63;;;0.60;;
18200;SDS011;9226;47.858;9.594;2022-09-29T11:26:44;2.00;;;1.20;;
18200;SDS011;9226;47.858;9.594;2022-09-29T11:32:14;1.43;;;0.83;;
18200;SDS011;9226;47.858;9.594;2022-09-29T11:34:53;1.20;;;0.90;;
18200;SDS011;9226;47.858;9.594;2022-09-29T11:43:45;2.87;;;0.97;;
18200;SDS011;9226;47.858;9.594;2022-09-29T12:03:22;1.67;;;0.97;;
18200;SDS011;9226;47.858;9.594;2022-09-29T12:14:24;1.17;;;0.90;;
18200;SDS011;9226;47.858;9.594;2022-09-29T12:17:10;1.20;;;1.10;;
18200;SDS011;9226;47.858;9.594;2022-09-29T12:19:39;2.23;;;1.10;;
18200;SDS011;9226;47.858;9.594;2022-09-29T12:22:07;2.73;;;1.00;;
18200;SDS011;9226;47.858;9.594;2022-09-29T12:24:47;1.10;;;0.90;;
18200;SDS011;9226;47.858;9.594;2022-09-29T12:27:27;2.47;;;1.10;;
18200;SDS011;9226;47.858;9.594;2022-09-29T12:30:00;1.80;;;0.90;;
18200;SDS011;9226;47.858;9.594;2022-09-29T12:35:18;0.83;;;0.60;;
18200;SDS011;9226;47.858;9.594;2022-09-29T12:41:15;0.90;;;0.73;;
18200;SDS011;9226;47.858;9.594;2022-09-29T12:51:50;2.80;;;0.90;;
18200;SDS011;9226;47.858;9.594;2022-09-29T12:54:21;1.97;;;0.90;;
18200;SDS011;9226;47.858;9.594;2022-09-29T12:57:03;1.23;;;0.90;;
18200;SDS011;9226;47.858;9.594;2022-09-29T13:01:56;1.07;;;0.90;;
18200;SDS011;9226;47.858;9.594;2022-09-29T13:16:00;1.37;;;1.20;;
18200;SDS011;9226;47.858;9.594;2022-09-29T13:21:27;1.73;;;1.30;;
18200;SDS011;9226;47.858;9.594;2022-09-29T13:24:14;3.17;;;1.63;;
18200;SDS011;9226;47.858;9.594;2022-09-29T13:29:48;1.97;;;1.60;;
18200;SDS011;9226;47.858;9.594;2022-09-29T13:32:21;1.97;;;1.50;;
18200;SDS011;9226;47.858;9.594;2022-09-29T13:34:51;2.00;;;1.33;;
18200;SDS011;9226;47.858;9.594;2022-09-29T13:37:20;4.47;;;1.50;;
18200;SDS011;9226;47.858;9.594;2022-09-29T13:39:54;2.37;;;1.40;;
18200;SDS011;9226;47.858;9.594;2022-09-29T13:45:14;1.90;;;1.10;;
18200;SDS011;9226;47.858;9.594;2022-09-29T13:47:59;3.13;;;1.10;;
18200;SDS011;9226;47.858;9.594;2022-09-29T13:50:46;2.17;;;1.60;;
18200;SDS011;9226;47.858;9.594;2022-09-29T14:01:00;4.83;;;2.40;;
18200;SDS011;9226;47.858;9.594;2022-09-29T14:06:07;4.77;;;1.50;;
18200;SDS011;9226;47.858;9.594;2022-09-29T14:09:23;1.60;;;1.40;;
18200;SDS011;9226;47.858;9.594;2022-09-29T14:11:57;2.87;;;1.80;;
18200;SDS011;9226;47.858;9.594;2022-09-29T14:14:29;3.37;;;1.40;;
18200;SDS011;9226;47.858;9.594;2022-09-29T14:17:02;2.80;;;1.67;;
18200;SDS011;9226;47.858;9.594;2022-09-29T14:27:36;4.10;;;1.63;;
18200;SDS011;9226;47.858;9.594;2022-09-29T14:33:10;2.37;;;1.67;;
18200;SDS011;9226;47.858;9.594;2022-09-29T14:38:45;3.10;;;2.20;;
18200;SDS011;9226;47.858;9.594;2022-09-29T14:41:24;1.63;;;1.30;;
18200;SDS011;9226;47.858;9.594;2022-09-29T14:44:14;3.60;;;1.20;;
18200;SDS011;9226;47.858;9.594;2022-09-29T14:50:01;1.60;;;1.30;;
18200;SDS011;9226;47.858;9.594;2022-09-29T15:03:51;2.40;;;1.43;;
18200;SDS011;9226;47.858;9.594;2022-09-29T15:06:22;2.53;;;1.63;;
18200;SDS011;9226;47.858;9.594;2022-09-29T15:09:33;6.70;;;1.70;;
18200;SDS011;9226;47.858;9.594;2022-09-29T15:11:42;2.83;;;1.97;;
18200;SDS011;9226;47.858;9.594;2022-09-29T15:16:47;2.70;;;1.60;;
18200;SDS011;9226;47.858;9.594;2022-09-29T15:24:42;5.37;;;1.90;;
18200;SDS011;9226;47.858;9.594;2022-09-29T15:27:10;2.60;;;1.80;;
18200;SDS011;9226;47.858;9.594;2022-09-29T15:29:38;2.40;;;1.80;;
18200;SDS011;9226;47.858;9.594;2022-09-29T15:32:11;3.70;;;2.00;;
18200;SDS011;9226;47.858;9.594;2022-09-29T15:34:45;3.40;;;2.17;;
18200;SDS011;9226;47.858;9.594;2022-09-29T15:37:12;4.33;;;1.63;;
18200;SDS011;9226;47.858;9.594;2022-09-29T15:39:50;2.53;;;1.60;;
18200;SDS011;9226;47.858;9.594;2022-09-29T15:42:20;3.37;;;2.10;;
18200;SDS011;9226;47.858;9.594;2022-09-29T15:47:20;1.97;;;1.60;;
18200;SDS011;9226;47.858;9.594;2022-09-29T15:49:50;5.40;;;1.93;;
18200;SDS011;9226;47.858;9.594;2022-09-29T15:52:17;1.60;;;1.40;;
18200;SDS011;9226;47.858;9.594;2022-09-29T15:54:47;2.13;;;1.67;;
18200;SDS011;9226;47.858;9.594;2022-09-29T15:57:39;2.63;;;1.70;;
18200;SDS011;9226;47.858;9.594;2022-09-29T16:05:31;5.57;;;1.30;;
18200;SDS011;9226;47.858;9.594;2022-09-29T16:08:02;2.83;;;1.37;;
18200;SDS011;9226;47.858;9.594;2022-09-29T16:10:31;2.13;;;1.50;;
18200;SDS011;9226;47.858;9.594;2022-09-29T16:13:00;1.90;;;1.30;;
18200;SDS011;9226;47.858;9.594;2022-09-29T16:15:41;2.43;;;1.50;;
18200;SDS011;9226;47.858;9.594;2022-09-29T16:18:09;2.00;;;1.40;;
18200;SDS011;9226;47.858;9.594;2022-09-29T16:20:45;2.10;;;1.43;;
18200;SDS011;9226;47.858;9.594;2022-09-29T16:23:24;1.77;;;1.40;;
18200;SDS011;9226;47.858;9.594;2022-09-29T16:28:35;4.23;;;2.40;;
18200;SDS011;9226;47.858;9.594;2022-09-29T16:31:03;4.00;;;2.70;;
18200;SDS011;9226;47.858;9.594;2022-09-29T16:33:31;5.00;;;3.20;;
18200;SDS011;9226;47.858;9.594;2022-09-29T16:36:02;5.77;;;3.70;;
18200;SDS011;9226;47.858;9.594;2022-09-29T16:38:37;6.97;;;4.80;;
18200;SDS011;9226;47.858;9.594;2022-09-29T16:44:16;7.30;;;4.43;;
18200;SDS011;9226;47.858;9.594;2022-09-29T16:49:14;8.50;;;5.77;;
18200;SDS011;9226;47.858;9.594;2022-09-29T16:51:43;10.57;;;5.83;;
18200;SDS011;9226;47.858;9.594;2022-09-29T16:54:13;9.10;;;4.93;;
18200;SDS011;9226;47.858;9.594;2022-09-29T16:56:41;6.33;;;3.47;;
18200;SDS011;9226;47.858;9.594;2022-09-29T16:59:09;2.97;;;2.17;;
18200;SDS011;9226;47.858;9.594;2022-09-29T17:01:40;3.50;;;2.30;;
18200;SDS011;9226;47.858;9.594;2022-09-29T17:04:06;8.27;;;3.70;;
18200;SDS011;9226;47.858;9.594;2022-09-29T17:06:32;7.30;;;4.10;;
18200;SDS011;9226;47.858;9.594;2022-09-29T17:08:58;10.00;;;4.43;;
18200;SDS011;9226;47.858;9.594;2022-09-29T17:11:24;5.67;;;3.50;;
18200;SDS011;9226;47.858;9.594;2022-09-29T17:13:51;9.03;;;5.87;;
18200;SDS011;9226;47.858;9.594;2022-09-29T17:16:20;5.90;;;4.43;;
18200;SDS011;9226;47.858;9.594;2022-09-29T17:18:46;11.50;;;6.20;;
18200;SDS011;9226;47.858;9.594;2022-09-29T17:21:13;9.30;;;5.97;;
18200;SDS011;9226;47.858;9.594;2022-09-29T17:23:39;6.13;;;4.13;;
18200;SDS011;9226;47.858;9.594;2022-09-29T17:26:05;3.57;;;2.50;;
18200;SDS011;9226;47.858;9.594;2022-09-29T17:29:00;2.67;;;1.77;;
18200;SDS011;9226;47.858;9.594;2022-09-29T17:31:26;2.33;;;1.60;;
18200;SDS011;9226;47.858;9.594;2022-09-29T17:33:51;2.63;;;2.00;;
18200;SDS011;9226;47.858;9.594;2022-09-29T17:36:17;3.13;;;2.17;;
18200;SDS011;9226;47.858;9.594;2022-09-29T17:38:44;3.17;;;2.10;;
18200;SDS011;9226;47.858;9.594;2022-09-29T17:41:12;2.77;;;1.90;;
18200;SDS011;9226;47.858;9.594;2022-09-29T17:43:40;4.53;;;2.27;;
18200;SDS011;9226;47.858;9.594;2022-09-29T17:46:11;4.73;;;2.83;;
18200;SDS011;9226;47.858;9.594;2022-09-29T17:48:38;8.27;;;4.70;;
18200;SDS011;9226;47.858;9.594;2022-09-29T17:51:05;16.50;;;8.80;;
18200;SDS011;9226;47.858;9.594;2022-09-29T17:53:35;6.87;;;3.33;;
18200;SDS011;9226;47.858;9.594;2022-09-29T17:56:01;16.20;;;9.47;;
18200;SDS011;9226;47.858;9.594;2022-09-29T17:58:27;12.57;;;7.20;;
18200;SDS011;9226;47.858;9.594;2022-09-29T18:00:53;4.27;;;3.40;;
18200;SDS011;9226;47.858;9.594;2022-09-29T18:03:21;6.30;;;4.43;;
18200;SDS011;9226;47.858;9.594;2022-09-29T18:05:52;5.17;;;3.60;;
18200;SDS011;9226;47.858;9.594;2022-09-29T18:08:24;12.77;;;7.87;;
18200;SDS011;9226;47.858;9.594;2022-09-29T18:10:57;10.77;;;5.27;;
18200;SDS011;9226;47.858;9.594;2022-09-29T18:13:25;5.13;;;3.20;;
18200;SDS011;9226;47.858;9.594;2022-09-29T18:15:52;6.03;;;2.77;;
18200;SDS011;9226;47.858;9.594;2022-09-29T18:18:18;4.87;;;2.67;;
18200;SDS011;9226;47.858;9.594;2022-09-29T18:20:46;5.00;;;2.70;;
18200;SDS011;9226;47.858;9.594;2022-09-29T18:23:14;5.50;;;3.33;;
18200;SDS011;9226;47.858;9.594;2022-09-29T18:25:40;7.50;;;3.73;;
18200;SDS011;9226;47.858;9.594;2022-09-29T18:28:11;5.50;;;3.60;;
18200;SDS011;9226;47.858;9.594;2022-09-29T18:30:39;7.77;;;4.50;;
18200;SDS011;9226;47.858;9.594;2022-09-29T18:33:11;6.47;;;4.17;;
18200;SDS011;9226;47.858;9.594;2022-09-29T18:35:38;6.57;;;3.90;;
18200;SDS011;9226;47.858;9.594;2022-09-29T18:38:08;6.70;;;3.70;;
18200;SDS011;9226;47.858;9.594;2022-09-29T18:40:35;5.80;;;3.73;;
18200;SDS011;9226;47.858;9.594;2022-09-29T18:43:02;5.37;;;3.77;;
18200;SDS011;9226;47.858;9.594;2022-09-29T18:45:30;8.17;;;3.60;;
18200;SDS011;9226;47.858;9.594;2022-09-29T18:47:59;8.40;;;4.10;;
18200;SDS011;9226;47.858;9.594;2022-09-29T18:50:31;10.00;;;4.70;;
18200;SDS011;9226;47.858;9.594;2022-09-29T18:52:59;12.17;;;5.97;;
18200;SDS011;9226;47.858;9.594;2022-09-29T18:55:26;17.10;;;7.50;;
18200;SDS011;9226;47.858;9.594;2022-09-29T18:57:54;13.63;;;6.43;;
18200;SDS011;9226;47.858;9.594;2022-09-29T19:00:31;15.60;;;6.97;;
18200;SDS011;9226;47.858;9.594;2022-09-29T19:03:00;11.23;;;5.17;;
18200;SDS011;9226;47.858;9.594;2022-09-29T19:05:29;9.47;;;5.00;;
18200;SDS011;9226;47.858;9.594;2022-09-29T19:07:57;12.27;;;5.40;;
18200;SDS011;9226;47.858;9.594;2022-09-29T19:10:25;6.57;;;4.00;;